Time;durP1;ratioP1;P1;durP2;ratioP2;P2;SDS_P1;SDS_P2;PMS_P1;PMS_P2;Temp;Humidity;BMP_temperature;BMP_pressure;BME280_temperature;BME280_humidity;BME280_pressure;Samples;Min_cycle;Max_cycle;Signal;HPM_P1;HPM_P2
2024/01/07 00:04:11;;;;;;;6.93;3.55;;;;;;;-18.01;87.03;102102.47;10443256;28;20037;-68
2024/01/07 00:09:14;;;;;;;4.90;3.38;;;;;;;-18.05;87.26;102104.34;10444193;28;20048;-67
2024/01/07 00:14:16;;;;;;;8.63;5.35;;;;;;;-18.02;86.94;102101.63;10432031;28;20054;-66
2024/01/07 00:19:19;;;;;;;7.63;3.95;;;;;;;-17.97;86.95;102097.97;10445769;28;20033;-67
2024/01/07 00:24:22;;;;;;;10.02;4.25;;;;;;;-17.95;87.69;102117.94;10445673;28;20395;-69
2024/01/07 00:29:24;;;;;;;24.20;11.27;;;;;;;-18.06;87.27;102118.34;10413691;28;20049;-69
2024/01/07 00:34:26;;;;;;;31.40;14.40;;;;;;;-18.33;86.96;102129.94;10431129;28;20048;-68
2024/01/07 00:39:28;;;;;;;24.52;11.98;;;;;;;-18.45;86.60;102133.03;10443554;28;20037;-68
2024/01/07 00:44:31;;;;;;;26.65;13.02;;;;;;;-18.52;86.90;102131.59;10443461;28;20044;-67
2024/01/07 00:49:33;;;;;;;27.70;12.95;;;;;;;-18.52;86.31;102140.28;10444221;28;20081;-68
2024/01/07 00:54:36;;;;;;;26.02;12.48;;;;;;;-18.57;86.49;102146.59;10443386;28;20037;-68
2024/01/07 00:59:38;;;;;;;29.17;12.60;;;;;;;-18.66;86.19;102139.97;10442591;28;20037;-69
2024/01/07 01:04:40;;;;;;;28.08;13.90;;;;;;;-18.56;86.15;102141.31;10442737;28;20029;-68
2024/01/07 01:09:43;;;;;;;32.33;14.30;;;;;;;-18.70;86.45;102154.94;10443502;28;20041;-68
2024/01/07 01:14:46;;;;;;;35.67;14.98;;;;;;;-18.85;86.66;102158.13;10442362;28;20685;-68
2024/01/07 01:19:48;;;;;;;31.38;13.35;;;;;;;-18.86;85.81;102161.66;10442825;28;20041;-68
2024/01/07 01:24:52;;;;;;;32.60;16.15;;;;;;;-18.80;85.94;102169.28;10441311;28;20045;-69
2024/01/07 01:29:56;;;;;;;36.60;15.60;;;;;;;-18.88;85.85;102173.09;10440092;28;20060;-68
2024/01/07 01:34:59;;;;;;;29.27;13.98;;;;;;;-18.87;85.50;102175.66;10442537;28;20041;-68
2024/01/07 01:40:03;;;;;;;29.17;12.98;;;;;;;-18.88;85.69;102173.09;10443239;28;20037;-68
2024/01/07 01:45:07;;;;;;;34.10;14.25;;;;;;;-18.90;86.27;102183.63;10439774;28;20083;-68
2024/01/07 01:50:10;;;;;;;35.42;14.10;;;;;;;-19.05;85.87;102187.63;10441648;28;20044;-69
2024/01/07 01:55:13;;;;;;;31.70;13.57;;;;;;;-19.13;85.67;102199.25;10400417;28;20862;-69
2024/01/07 02:00:17;;;;;;;33.03;13.75;;;;;;;-19.24;85.01;102205.72;10405221;28;20319;-67
2024/01/07 02:05:20;;;;;;;19.33;8.68;;;;;;;-19.03;84.95;102198.88;10443783;28;20049;-68
2024/01/07 02:10:23;;;;;;;22.33;10.57;;;;;;;-18.76;85.59;102196.19;10443934;28;20045;-68
2024/01/07 02:15:25;;;;;;;20.58;10.38;;;;;;;-18.87;86.00;102196.59;10441705;28;20080;-69
2024/01/07 02:20:28;;;;;;;27.25;11.75;;;;;;;-19.01;85.77;102207.53;10440288;28;20037;-69
2024/01/07 02:25:37;;;;;;;22.45;9.73;;;;;;;-19.10;85.23;102210.44;10442434;28;20037;-69
2024/01/07 02:30:39;;;;;;;25.63;11.07;;;;;;;-19.03;84.98;102216.34;10440367;28;20045;-69
2024/01/07 02:35:42;;;;;;;24.40;10.98;;;;;;;-19.13;85.53;102223.63;10441211;28;20041;-69
2024/01/07 02:40:44;;;;;;;32.95;14.30;;;;;;;-19.12;85.24;102225.34;10439759;28;20044;-69
2024/01/07 02:45:47;;;;;;;26.05;11.30;;;;;;;-19.26;85.63;102220.63;10440531;28;20068;-69
2024/01/07 02:50:49;;;;;;;31.63;12.38;;;;;;;-19.41;84.48;102226.34;10440252;28;20537;-68
2024/01/07 02:55:52;;;;;;;30.08;12.05;;;;;;;-19.53;85.00;102232.81;10411370;28;20528;-68
2024/01/07 03:00:56;;;;;;;31.90;13.35;;;;;;;-19.66;84.48;102243.75;10447405;28;20037;-69
2024/01/07 03:06:02;;;;;;;36.13;14.93;;;;;;;-19.64;84.11;102241.94;10448930;28;20039;-68
2024/01/07 03:11:06;;;;;;;32.35;15.20;;;;;;;-19.66;84.56;102247.22;10447466;28;20037;-68
2024/01/07 03:16:19;;;;;;;32.50;14.48;;;;;;;-19.79;84.22;102248.50;10446674;28;20118;-68
2024/01/07 03:21:23;;;;;;;30.95;12.57;;;;;;;-19.88;83.95;102249.66;10448154;28;20044;-68
2024/01/07 03:26:30;;;;;;;28.98;12.05;;;;;;;-19.87;83.45;102250.50;10433790;28;20045;-69
2024/01/07 03:31:33;;;;;;;26.27;11.07;;;;;;;-19.89;84.11;102255.78;10446251;28;20164;-68
2024/01/07 03:36:36;;;;;;;26.10;11.10;;;;;;;-19.83;83.92;102252.13;10447713;28;20417;-69
2024/01/07 03:41:39;;;;;;;22.52;10.55;;;;;;;-19.94;84.19;102257.69;10436516;28;20041;-68
2024/01/07 03:46:42;;;;;;;21.45;10.45;;;;;;;-19.93;83.97;102271.59;10435300;28;20049;-71
2024/01/07 03:51:50;;;;;;;23.02;10.52;;;;;;;-19.92;84.76;102284.63;10440943;28;20077;-69
2024/01/07 03:56:53;;;;;;;19.95;9.45;;;;;;;-19.96;84.21;102293.41;10416075;28;20040;-70
2024/01/07 04:01:57;;;;;;;20.05;10.07;;;;;;;-20.03;84.38;102291.91;10438742;28;20046;-69
2024/01/07 04:07:00;;;;;;;17.13;8.43;;;;;;;-19.99;83.76;102290.91;10434385;28;20091;-70
2024/01/07 04:12:03;;;;;;;22.30;9.73;;;;;;;-20.05;83.63;102295.47;10447196;28;20041;-69
2024/01/07 04:17:08;;;;;;;22.77;9.32;;;;;;;-20.14;83.74;102289.59;10444150;28;20040;-69
2024/01/07 04:22:10;;;;;;;22.63;9.27;;;;;;;-20.23;83.69;102300.31;10438963;28;20045;-70
2024/01/07 04:27:12;;;;;;;21.13;8.98;;;;;;;-20.33;83.68;102301.47;10441908;28;20048;-69
2024/01/07 04:32:15;;;;;;;18.50;9.20;;;;;;;-20.33;83.31;102300.63;10441141;28;20045;-69
2024/01/07 04:37:18;;;;;;;21.48;9.60;;;;;;;-20.41;83.21;102310.47;10422357;28;20044;-68
2024/01/07 04:42:21;;;;;;;19.23;9.63;;;;;;;-20.43;83.42;102314.88;10407714;28;20429;-69
2024/01/07 04:47:28;;;;;;;19.85;8.95;;;;;;;-20.43;83.34;102309.66;10436856;28;20056;-68
2024/01/07 04:52:31;;;;;;;23.80;9.48;;;;;;;-20.47;83.34;102317.56;10437564;28;20042;-68
2024/01/07 04:57:33;;;;;;;18.58;9.05;;;;;;;-20.41;82.94;102326.13;10415100;28;20223;-68
2024/01/07 05:02:36;;;;;;;18.40;9.25;;;;;;;-20.44;83.05;102323.59;10432956;28;20063;-69
2024/01/07 05:07:38;;;;;;;20.92;10.63;;;;;;;-20.56;82.96;102322.16;10442079;28;20037;-68
2024/01/07 05:12:41;;;;;;;22.33;10.52;;;;;;;-20.53;82.99;102328.16;10436453;28;20030;-69
2024/01/07 05:17:44;;;;;;;21.30;10.18;;;;;;;-20.55;82.85;102329.97;10406781;28;20069;-68
2024/01/07 05:22:47;;;;;;;23.33;9.75;;;;;;;-20.48;83.35;102338.47;10440586;28;20049;-68
2024/01/07 05:27:50;;;;;;;20.58;8.93;;;;;;;-20.32;83.26;102342.34;10431253;28;20061;-67
2024/01/07 05:32:52;;;;;;;24.80;9.57;;;;;;;-20.31;83.09;102351.03;10443053;28;20037;-68
2024/01/07 05:37:55;;;;;;;22.45;9.75;;;;;;;-20.31;82.91;102353.63;10445501;28;20037;-69
2024/01/07 05:42:57;;;;;;;18.42;8.52;;;;;;;-20.37;82.86;102359.03;10421573;28;20517;-69
2024/01/07 05:47:59;;;;;;;24.90;10.90;;;;;;;-20.52;82.37;102352.50;10441662;28;20052;-68
2024/01/07 05:53:01;;;;;;;24.10;11.07;;;;;;;-20.57;82.56;102368.28;10442516;28;20048;-68
2024/01/07 05:58:04;;;;;;;20.15;10.85;;;;;;;-20.59;81.85;102380.53;10440582;28;20045;-68
2024/01/07 06:03:06;;;;;;;13.55;6.72;;;;;;;-20.46;82.08;102392.34;10429388;28;20425;-69
2024/01/07 06:08:10;;;;;;;13.60;6.50;;;;;;;-20.34;82.48;102392.88;10413702;28;20034;-68
2024/01/07 06:13:12;;;;;;;10.93;5.82;;;;;;;-20.23;82.65;102393.47;10407006;28;20489;-67
2024/01/07 06:18:14;;;;;;;10.93;5.68;;;;;;;-20.12;83.10;102396.63;10409597;28;20042;-67
2024/01/07 06:23:17;;;;;;;11.10;5.65;;;;;;;-19.96;83.06;102397.03;10412460;28;20529;-68
2024/01/07 06:28:20;;;;;;;11.82;5.47;;;;;;;-19.98;83.48;102415.38;10430875;28;20045;-69
2024/01/07 06:33:23;;;;;;;3.53;2.05;;;;;;;-19.80;83.13;102414.00;10420978;28;20044;-68
2024/01/07 06:38:25;;;;;;;3.90;2.15;;;;;;;-19.82;82.93;102415.81;10446856;28;20037;-68
2024/01/07 06:43:28;;;;;;;4.32;2.67;;;;;;;-19.67;82.60;102419.72;10440452;28;20045;-67
2024/01/07 06:48:30;;;;;;;5.78;2.65;;;;;;;-19.54;82.97;102421.09;10449156;28;20064;-67
2024/01/07 06:53:33;;;;;;;3.35;2.35;;;;;;;-19.44;83.14;102429.47;10436206;28;20427;-68
2024/01/07 06:58:35;;;;;;;4.93;2.38;;;;;;;-19.33;82.83;102428.25;10447256;28;20037;-68
2024/01/07 07:03:37;;;;;;;4.65;2.65;;;;;;;-19.29;82.33;102437.72;10448347;28;20045;-68
2024/01/07 07:08:41;;;;;;;4.47;2.40;;;;;;;-19.21;82.19;102445.34;10444581;28;20041;-68
2024/01/07 07:13:43;;;;;;;2.15;2.05;;;;;;;-19.18;82.43;102442.63;10447291;28;20037;-68
2024/01/07 07:18:45;;;;;;;8.13;2.08;;;;;;;-19.13;82.11;102445.97;10446661;28;20045;-68
2024/01/07 07:23:48;;;;;;;3.72;2.08;;;;;;;-18.93;81.86;102451.41;10442223;28;20038;-68
2024/01/07 07:28:50;;;;;;;2.22;2.03;;;;;;;-18.23;81.34;102448.22;10445795;28;20048;-68
2024/01/07 07:33:53;;;;;;;1.55;1.40;;;;;;;-17.33;81.29;102457.22;10431451;28;20053;-68
2024/01/07 07:38:56;;;;;;;3.67;3.33;;;;;;;-18.08;79.18;102457.31;10440486;28;20673;-68
2024/01/07 07:43:58;;;;;;;4.60;2.30;;;;;;;-16.56;78.42;102451.47;10429057;28;20540;-66
2024/01/07 07:49:02;;;;;;;4.47;2.83;;;;;;;-13.81;75.34;102439.47;10446598;28;20057;-67
2024/01/07 07:54:05;;;;;;;4.20;2.38;;;;;;;-12.38;71.03;102450.94;10443787;28;20406;-67
2024/01/07 07:59:08;;;;;;;3.35;1.98;;;;;;;-10.62;65.81;102443.59;10445377;28;20056;-67
2024/01/07 08:04:12;;;;;;;11.23;3.35;;;;;;;-10.30;59.66;102439.69;10441057;28;20417;-67
2024/01/07 08:09:16;;;;;;;13.80;3.58;;;;;;;-9.47;56.99;102445.50;10441706;28;20631;-67
2024/01/07 08:14:19;;;;;;;4.18;2.70;;;;;;;-9.17;54.26;102447.81;10415233;28;20522;-67
2024/01/07 08:19:22;;;;;;;4.43;3.15;;;;;;;-8.94;53.37;102455.00;10440027;28;20505;-67
2024/01/07 08:24:25;;;;;;;3.78;3.42;;;;;;;-9.36;51.96;102458.03;10443703;28;20136;-67
2024/01/07 08:29:29;;;;;;;8.68;3.78;;;;;;;-9.37;51.17;102466.94;10442877;28;20516;-67
2024/01/07 08:34:31;;;;;;;3.60;2.92;;;;;;;-10.43;52.54;102471.47;10433905;28;20421;-67
2024/01/07 08:39:34;;;;;;;3.40;2.95;;;;;;;-13.10;55.34;102476.13;10435350;28;20726;-67
2024/01/07 08:44:36;;;;;;;4.78;3.30;;;;;;;-16.38;62.14;102485.78;10441959;28;20038;-67
2024/01/07 08:49:39;;;;;;;4.05;2.65;;;;;;;-17.31;65.76;102487.72;10427505;28;20053;-67
2024/01/07 08:54:43;;;;;;;5.50;3.00;;;;;;;-17.83;67.68;102494.03;10438749;28;20049;-67
2024/01/07 08:59:45;;;;;;;7.85;5.20;;;;;;;-18.12;70.41;102506.34;10441061;28;20052;-67
2024/01/07 09:04:49;;;;;;;9.02;4.63;;;;;;;-18.20;71.00;102505.78;10437027;28;20041;-67
2024/01/07 09:09:52;;;;;;;13.10;5.07;;;;;;;-18.34;72.30;102500.13;10471583;28;20559;-66
2024/01/07 09:14:55;;;;;;;5.82;4.18;;;;;;;-18.39;72.48;102500.28;10445084;28;20042;-68
2024/01/07 09:19:58;;;;;;;7.68;4.07;;;;;;;-18.37;73.32;102506.34;10417800;28;20042;-68
2024/01/07 09:25:05;;;;;;;5.30;3.53;;;;;;;-18.47;74.22;102507.53;10411892;28;20042;-67
2024/01/07 09:30:10;;;;;;;4.25;3.33;;;;;;;-18.43;74.58;102506.50;10419902;28;20509;-67
2024/01/07 09:35:12;;;;;;;5.90;2.90;;;;;;;-18.39;75.02;102505.53;10425503;28;20030;-66
2024/01/07 09:40:19;;;;;;;7.55;2.90;;;;;;;-18.20;75.21;102518.03;10430543;28;20132;-67
2024/01/07 09:45:23;;;;;;;8.82;4.25;;;;;;;-18.13;75.64;102520.38;10412234;28;20049;-66
2024/01/07 09:50:27;;;;;;;8.25;4.35;;;;;;;-18.10;75.14;102522.03;10431908;28;20048;-68
2024/01/07 09:56:08;;;;;;;13.23;4.35;;;;;;;-17.96;75.33;102524.19;10426694;28;20395;-66
2024/01/07 10:01:12;;;;;;;7.05;3.03;;;;;;;-17.88;75.32;102525.63;10418735;28;20037;-65
2024/01/07 10:06:19;;;;;;;6.85;3.80;;;;;;;-17.81;75.22;102523.66;10426162;28;20033;-66
2024/01/07 10:11:22;;;;;;;8.60;4.25;;;;;;;-17.77;75.18;102520.03;10433597;28;20509;-64
2024/01/07 10:16:25;;;;;;;10.25;5.65;;;;;;;-17.73;75.58;102524.25;10425737;28;20060;-63
2024/01/07 10:21:27;;;;;;;7.32;3.75;;;;;;;-17.62;76.43;102532.56;10439501;28;20036;-64
2024/01/07 10:26:31;;;;;;;7.35;3.97;;;;;;;-17.60;75.88;102529.88;10441489;28;20046;-64
2024/01/07 10:31:35;;;;;;;4.60;2.97;;;;;;;-17.58;76.10;102534.16;10430175;28;20033;-67
2024/01/07 10:36:38;;;;;;;7.47;3.80;;;;;;;-17.47;76.15;102539.88;10428444;28;20060;-67
2024/01/07 10:41:42;;;;;;;12.27;4.78;;;;;;;-17.46;76.09;102541.59;10437328;28;20033;-66
2024/01/07 10:46:45;;;;;;;9.77;5.18;;;;;;;-17.45;76.70;102543.31;10427470;28;20049;-63
2024/01/07 10:51:56;;;;;;;6.60;3.70;;;;;;;-17.38;76.03;102542.16;10426505;28;20042;-66
2024/01/07 10:57:23;;;;;;;4.40;3.25;;;;;;;-17.23;76.73;102542.53;10414547;28;20034;-67
2024/01/07 11:02:26;;;;;;;6.93;3.50;;;;;;;-17.16;76.30;102538.78;10415256;28;20057;-65
2024/01/07 11:07:37;;;;;;;4.22;2.83;;;;;;;-17.07;76.54;102543.69;10424028;28;20523;-65
2024/01/07 11:12:40;;;;;;;4.70;3.70;;;;;;;-17.03;75.90;102531.28;10435117;28;20037;-66
2024/01/07 11:17:45;;;;;;;5.78;3.20;;;;;;;-16.97;76.62;102545.06;10446568;28;20041;-66
2024/01/07 11:22:47;;;;;;;6.15;3.60;;;;;;;-16.94;76.55;102539.69;10446877;28;20049;-66
2024/01/07 11:27:49;;;;;;;5.38;3.47;;;;;;;-16.91;76.48;102544.81;10447198;28;20041;-66
2024/01/07 11:32:59;;;;;;;7.07;3.30;;;;;;;-16.89;76.32;102540.34;10458423;28;20413;-66
2024/01/07 11:38:02;;;;;;;7.00;3.72;;;;;;;-16.87;76.85;102541.16;10442580;28;20029;-65
2024/01/07 11:43:04;;;;;;;8.90;5.03;;;;;;;-16.89;76.75;102529.84;10433409;28;20052;-65
2024/01/07 11:48:07;;;;;;;5.00;2.95;;;;;;;-16.88;76.71;102541.22;10412973;28;20065;-65
2024/01/07 11:53:11;;;;;;;5.95;3.28;;;;;;;-16.88;76.36;102544.69;10441943;28;20056;-65
2024/01/07 11:58:13;;;;;;;5.28;3.03;;;;;;;-16.90;76.63;102535.16;10417529;28;20536;-65
2024/01/07 12:03:16;;;;;;;3.75;2.20;;;;;;;-16.93;76.50;102528.25;10426022;28;20041;-68
2024/01/07 12:08:20;;;;;;;4.72;1.73;;;;;;;-16.92;75.94;102540.47;10434946;28;20417;-66
2024/01/07 12:13:22;;;;;;;5.43;2.42;;;;;;;-16.99;76.71;102541.63;10421497;28;20132;-65
2024/01/07 12:18:26;;;;;;;4.05;2.47;;;;;;;-17.01;76.59;102537.31;10424778;28;20048;-66
2024/01/07 12:23:28;;;;;;;6.45;2.05;;;;;;;-17.00;76.46;102533.81;10417639;28;20042;-67
2024/01/07 12:28:30;;;;;;;4.25;2.30;;;;;;;-17.01;76.29;102539.94;10423069;28;20045;-67
2024/01/07 12:33:33;;;;;;;2.50;1.88;;;;;;;-17.08;76.75;102544.59;10429970;28;20048;-67
2024/01/07 12:38:39;;;;;;;4.10;2.38;;;;;;;-17.14;76.71;102547.44;10417802;28;20049;-67
2024/01/07 12:43:41;;;;;;;3.38;1.85;;;;;;;-17.16;76.77;102546.66;10441105;28;20034;-66
2024/01/07 12:48:43;;;;;;;7.28;3.00;;;;;;;-17.23;76.73;102563.50;10426381;28;20056;-66
2024/01/07 12:53:46;;;;;;;3.72;1.80;;;;;;;-17.27;77.38;102567.16;10424414;28;20541;-65
2024/01/07 12:58:49;;;;;;;4.13;1.83;;;;;;;-17.39;77.05;102563.22;10435605;28;20042;-65
2024/01/07 13:03:52;;;;;;;4.03;1.55;;;;;;;-17.53;77.65;102566.31;10438676;28;20043;-66
2024/01/07 13:08:54;;;;;;;5.55;2.78;;;;;;;-17.65;77.91;102564.13;10407745;28;20068;-65
2024/01/07 13:13:59;;;;;;;4.20;2.63;;;;;;;-17.70;78.18;102584.44;10402922;28;20037;-66
2024/01/07 13:19:04;;;;;;;2.40;2.17;;;;;;;-17.84;79.01;102590.16;10430345;28;20042;-66
2024/01/07 13:24:06;;;;;;;3.38;2.42;;;;;;;-17.93;78.66;102587.84;10401078;28;20092;-65
2024/01/07 13:29:08;;;;;;;4.60;2.25;;;;;;;-17.98;78.75;102586.28;10404699;28;20068;-65
2024/01/07 13:34:13;;;;;;;5.85;3.53;;;;;;;-18.01;79.03;102595.97;10440460;28;20041;-65
2024/01/07 13:39:17;;;;;;;5.28;2.45;;;;;;;-18.04;79.34;102590.81;10438854;28;20038;-65
2024/01/07 13:44:21;;;;;;;5.82;2.80;;;;;;;-18.08;80.03;102593.56;10427620;28;20045;-66
2024/01/07 13:49:23;;;;;;;3.83;2.45;;;;;;;-18.06;80.18;102607.47;10428966;28;20058;-65
2024/01/07 13:54:26;;;;;;;1.98;1.85;;;;;;;-17.95;80.22;102599.28;10435243;28;20046;-67
2024/01/07 13:59:29;;;;;;;5.85;3.78;;;;;;;-17.92;79.95;102589.53;10405283;28;20046;-67
2024/01/07 14:04:31;;;;;;;8.45;3.22;;;;;;;-17.90;80.54;102595.59;10405070;28;20042;-66
2024/01/07 14:09:34;;;;;;;4.88;3.08;;;;;;;-17.91;79.98;102598.25;10410050;28;20040;-66
2024/01/07 14:14:36;;;;;;;3.17;2.15;;;;;;;-17.92;80.16;102599.16;10437067;28;20041;-66
2024/01/07 14:19:39;;;;;;;6.72;2.65;;;;;;;-17.89;79.83;102609.53;10383634;28;20138;-67
2024/01/07 14:24:42;;;;;;;2.70;2.25;;;;;;;-17.94;80.43;102606.22;10438309;28;20603;-65
2024/01/07 14:29:45;;;;;;;7.10;2.88;;;;;;;-17.93;80.92;102598.31;10433421;28;20049;-66
2024/01/07 14:34:49;;;;;;;2.83;2.55;;;;;;;-17.93;80.99;102603.56;10412504;28;20071;-67
2024/01/07 14:39:54;;;;;;;4.95;3.40;;;;;;;-17.92;80.48;102607.03;10404240;28;20545;-67
2024/01/07 14:44:56;;;;;;;4.03;2.58;;;;;;;-17.94;81.12;102603.59;10395209;28;20044;-66
2024/01/07 14:49:59;;;;;;;7.45;2.70;;;;;;;-17.98;81.37;102604.63;10423893;28;20037;-65
2024/01/07 14:55:02;;;;;;;10.57;3.50;;;;;;;-18.03;80.97;102610.88;10444029;28;20041;-65
2024/01/07 15:00:05;;;;;;;6.18;2.75;;;;;;;-18.02;81.75;102623.06;10421463;28;20056;-65
2024/01/07 15:05:09;;;;;;;3.55;2.63;;;;;;;-18.09;81.74;102624.16;10428536;28;20513;-67
2024/01/07 15:10:16;;;;;;;5.32;3.25;;;;;;;-18.07;81.80;102624.09;10409127;28;20052;-66
2024/01/07 15:15:22;;;;;;;4.47;2.38;;;;;;;-18.10;82.35;102618.97;10411177;28;20049;-66
2024/01/07 15:20:24;;;;;;;9.88;3.75;;;;;;;-18.15;82.64;102624.38;10437933;28;20064;-65
2024/01/07 15:25:28;;;;;;;4.30;3.38;;;;;;;-18.19;82.36;102628.00;10425806;28;20038;-67
2024/01/07 15:30:31;;;;;;;5.07;3.20;;;;;;;-18.21;82.82;102621.09;10433611;28;20041;-66
2024/01/07 15:35:33;;;;;;;5.28;3.40;;;;;;;-18.25;82.83;102622.06;10422589;28;20042;-66
2024/01/07 15:40:35;;;;;;;3.55;2.65;;;;;;;-18.24;82.90;102618.53;10416573;28;20038;-65
2024/01/07 15:45:38;;;;;;;4.45;3.13;;;;;;;-18.23;82.89;102628.13;10443895;28;20054;-66
2024/01/07 15:50:41;;;;;;;5.18;2.75;;;;;;;-18.23;83.17;102626.34;10446855;28;20041;-66
2024/01/07 15:55:43;;;;;;;4.15;2.42;;;;;;;-18.23;83.12;102626.34;10424830;28;20046;-66
2024/01/07 16:00:46;;;;;;;3.88;2.80;;;;;;;-18.22;83.05;102638.56;10422020;28;20045;-66
2024/01/07 16:05:49;;;;;;;4.95;2.72;;;;;;;-18.21;83.14;102636.81;10420241;28;20037;-65
2024/01/07 16:10:52;;;;;;;5.57;3.42;;;;;;;-18.22;83.58;102641.19;10428759;28;20053;-66
2024/01/07 16:15:55;;;;;;;5.13;3.30;;;;;;;-18.24;83.35;102629.88;10431782;28;20813;-65
2024/01/07 16:20:58;;;;;;;9.05;4.07;;;;;;;-18.22;83.42;102628.09;10433804;28;20056;-66
2024/01/07 16:26:00;;;;;;;4.05;3.00;;;;;;;-18.21;83.45;102628.94;10411266;28;20041;-65
2024/01/07 16:31:04;;;;;;;7.60;2.92;;;;;;;-18.20;83.37;102634.13;10454163;28;20043;-65
2024/01/07 16:36:07;;;;;;;4.32;2.67;;;;;;;-18.22;83.60;102630.72;10415828;28;20394;-66
2024/01/07 16:41:10;;;;;;;4.38;3.22;;;;;;;-18.24;83.28;102626.41;10415830;28;20053;-66
2024/01/07 16:46:14;;;;;;;8.32;4.13;;;;;;;-18.20;83.17;102636.75;10417851;28;20050;-65
2024/01/07 16:51:17;;;;;;;8.38;3.35;;;;;;;-18.15;82.86;102634.84;10443581;28;20421;-66
2024/01/07 16:56:20;;;;;;;7.10;3.65;;;;;;;-18.15;83.00;102623.50;10420604;28;20048;-67
2024/01/07 17:01:25;;;;;;;5.55;3.83;;;;;;;-18.15;82.81;102626.97;10436603;28;20037;-66
2024/01/07 17:06:28;;;;;;;5.13;4.20;;;;;;;-18.15;83.33;102619.13;10443717;28;20045;-67
2024/01/07 17:11:31;;;;;;;3.40;3.03;;;;;;;-18.21;82.79;102614.09;10428861;28;20422;-65
2024/01/07 17:16:34;;;;;;;4.80;2.85;;;;;;;-18.30;83.00;102614.38;10443121;28;20478;-67
2024/01/07 17:21:37;;;;;;;6.15;3.70;;;;;;;-18.40;82.33;102612.91;10443450;28;20575;-66
2024/01/07 17:26:40;;;;;;;4.07;3.10;;;;;;;-18.50;82.73;102612.38;10442803;28;20513;-67
2024/01/07 17:31:44;;;;;;;5.30;2.95;;;;;;;-18.59;83.01;102607.38;10416595;28;20536;-67
2024/01/07 17:36:46;;;;;;;3.42;2.03;;;;;;;-18.70;82.42;102614.75;10441138;28;20034;-66
2024/01/07 17:41:50;;;;;;;8.55;5.32;;;;;;;-18.78;82.85;102620.19;10441341;28;20073;-68
2024/01/07 17:46:52;;;;;;;6.45;2.85;;;;;;;-18.89;81.92;102624.91;10438130;28;20046;-68
2024/01/07 17:51:55;;;;;;;8.20;4.53;;;;;;;-18.95;82.30;102609.38;10435795;28;20037;-69
2024/01/07 17:56:58;;;;;;;9.57;4.00;;;;;;;-19.00;82.13;102608.66;10404657;28;20501;-68
2024/01/07 18:02:02;;;;;;;10.38;4.72;;;;;;;-19.06;82.89;102603.59;10437422;28;20053;-68
2024/01/07 18:07:04;;;;;;;7.97;4.95;;;;;;;-19.15;82.34;102598.59;10464689;28;20040;-67
2024/01/07 18:12:12;;;;;;;7.82;4.30;;;;;;;-19.23;82.53;102610.16;10442647;28;20382;-68
2024/01/07 18:17:15;;;;;;;5.05;3.90;;;;;;;-19.28;82.03;102608.53;10445218;28;20048;-68
2024/01/07 18:22:18;;;;;;;7.75;4.45;;;;;;;-19.36;82.39;102603.53;10450711;28;20057;-69
2024/01/07 18:27:21;;;;;;;4.80;3.15;;;;;;;-19.35;82.52;102607.88;10450316;28;20048;-68
2024/01/07 18:32:23;;;;;;;6.75;3.67;;;;;;;-19.45;82.37;102609.00;10448884;28;20045;-68
2024/01/07 18:37:26;;;;;;;9.57;4.00;;;;;;;-19.58;82.77;102605.91;10431941;28;20421;-68
2024/01/07 18:42:28;;;;;;;7.10;4.28;;;;;;;-19.64;82.61;102603.44;10434223;28;20048;-68
2024/01/07 18:47:32;;;;;;;6.13;3.13;;;;;;;-19.66;82.60;102601.75;10423345;28;20056;-69
2024/01/07 18:52:34;;;;;;;9.65;4.13;;;;;;;-19.69;82.26;102605.31;10427871;28;20044;-68
2024/01/07 18:57:38;;;;;;;7.15;3.70;;;;;;;-19.68;82.59;102606.19;10416335;28;20033;-69
2024/01/07 19:02:41;;;;;;;9.10;4.20;;;;;;;-19.65;82.60;102595.63;10419889;28;20038;-69
2024/01/07 19:07:44;;;;;;;5.72;3.08;;;;;;;-19.56;82.89;102600.63;10425943;28;20046;-71
2024/01/07 19:12:46;;;;;;;8.27;3.60;;;;;;;-19.48;83.17;102595.16;10438286;28;20107;-68
2024/01/07 19:17:49;;;;;;;4.63;2.17;;;;;;;-19.43;82.99;102591.53;10449198;28;20042;-69
2024/01/07 19:22:51;;;;;;;4.22;2.45;;;;;;;-19.44;82.99;102586.31;10449047;28;20072;-69
2024/01/07 19:27:55;;;;;;;4.15;3.25;;;;;;;-19.44;83.38;102594.16;10445202;28;20041;-68
2024/01/07 19:32:58;;;;;;;5.85;2.95;;;;;;;-19.49;83.44;102589.06;10408545;28;20040;-69
2024/01/07 19:38:01;;;;;;;4.22;3.17;;;;;;;-19.52;83.10;102597.00;10424916;28;20531;-69
2024/01/07 19:43:03;;;;;;;3.78;2.67;;;;;;;-19.50;83.59;102602.19;10427272;28;20041;-69
2024/01/07 19:48:06;;;;;;;6.10;2.85;;;;;;;-19.53;83.80;102603.13;10406688;28;20057;-69
2024/01/07 19:53:08;;;;;;;5.70;3.28;;;;;;;-19.53;83.84;102606.59;10405653;28;20052;-67
2024/01/07 19:58:13;;;;;;;7.82;3.28;;;;;;;-19.45;83.40;102608.16;10434138;28;20040;-69
2024/01/07 20:03:18;;;;;;;3.25;2.55;;;;;;;-19.37;83.40;102601.81;10407981;28;20045;-69
2024/01/07 20:08:21;;;;;;;5.47;3.05;;;;;;;-19.30;83.95;102598.13;10418512;28;20056;-68
2024/01/07 20:13:23;;;;;;;2.83;2.50;;;;;;;-19.24;84.11;102589.28;10406349;28;20124;-69
2024/01/07 20:18:26;;;;;;;2.60;1.95;;;;;;;-19.20;83.86;102583.06;10404754;28;20512;-68
2024/01/07 20:23:29;;;;;;;4.88;3.38;;;;;;;-19.17;84.11;102582.09;10431592;28;20037;-69
2024/01/07 20:28:32;;;;;;;4.55;2.58;;;;;;;-19.10;83.99;102583.63;10445734;28;20048;-69
2024/01/07 20:33:35;;;;;;;5.63;2.80;;;;;;;-19.08;84.35;102581.88;10441521;28;20041;-68
2024/01/07 20:38:39;;;;;;;3.17;2.40;;;;;;;-18.98;84.33;102583.28;10416556;28;20041;-69
2024/01/07 20:43:42;;;;;;;6.28;2.55;;;;;;;-18.87;84.55;102581.22;10430582;28;20041;-69
2024/01/07 20:48:44;;;;;;;3.42;2.28;;;;;;;-18.73;84.65;102583.44;10419403;28;20037;-67
2024/01/07 20:53:46;;;;;;;3.67;2.03;;;;;;;-18.61;85.56;102583.88;10423276;28;20033;-68
2024/01/07 20:58:50;;;;;;;2.60;1.67;;;;;;;-18.49;85.12;102580.03;10430228;28;20502;-68
2024/01/07 21:03:52;;;;;;;3.30;2.15;;;;;;;-18.39;86.03;102576.25;10439627;28;20037;-68
2024/01/07 21:08:55;;;;;;;4.63;1.95;;;;;;;-18.31;85.17;102582.06;10430019;28;20034;-67
2024/01/07 21:13:57;;;;;;;2.45;2.00;;;;;;;-18.25;85.26;102577.53;10417972;28;20430;-66
2024/01/07 21:18:59;;;;;;;4.93;2.13;;;;;;;-18.26;85.17;102576.69;10417024;28;20038;-67
2024/01/07 21:24:02;;;;;;;3.35;1.85;;;;;;;-18.17;85.56;102568.53;10413832;28;20037;-70
2024/01/07 21:29:05;;;;;;;2.88;1.92;;;;;;;-18.14;85.47;102565.81;10428106;28;20509;-68
2024/01/07 21:34:08;;;;;;;1.55;1.40;;;;;;;-18.13;86.07;102570.16;10403957;28;20034;-67
2024/01/07 21:39:11;;;;;;;2.67;1.60;;;;;;;-18.10;86.64;102559.56;10415096;28;20700;-67
2024/01/07 21:44:14;;;;;;;3.03;2.45;;;;;;;-18.09;86.64;102553.41;10407209;28;20034;-67
2024/01/07 21:49:17;;;;;;;5.05;2.45;;;;;;;-18.07;86.76;102551.59;10407628;28;20046;-68
2024/01/07 21:54:20;;;;;;;2.90;1.38;;;;;;;-18.10;87.10;102549.09;10402187;28;20053;-68
2024/01/07 21:59:22;;;;;;;3.42;2.22;;;;;;;-18.08;87.61;102541.16;10410951;28;20037;-66
2024/01/07 22:04:24;;;;;;;1.77;1.67;;;;;;;-18.12;87.10;102532.56;10409258;28;20042;-67
2024/01/07 22:09:27;;;;;;;3.88;2.20;;;;;;;-18.12;87.71;102529.94;10408367;28;20045;-67
2024/01/07 22:14:29;;;;;;;2.40;2.15;;;;;;;-18.06;87.95;102523.63;10419265;28;20048;-66
2024/01/07 22:19:31;;;;;;;1.98;0.90;;;;;;;-18.11;87.84;102509.84;10422600;28;20053;-67
2024/01/07 22:24:33;;;;;;;1.67;1.55;;;;;;;-18.11;88.07;102497.59;10401840;28;20034;-68
2024/01/07 22:29:36;;;;;;;3.13;1.63;;;;;;;-18.13;87.80;102511.66;10413587;28;20049;-68
2024/01/07 22:34:38;;;;;;;1.27;1.17;;;;;;;-18.15;87.88;102503.00;10429276;28;20037;-66
2024/01/07 22:39:42;;;;;;;3.22;1.48;;;;;;;-18.17;88.47;102499.56;10416876;28;20041;-68
2024/01/07 22:44:44;;;;;;;2.50;1.58;;;;;;;-18.18;88.47;102511.81;10427877;28;20033;-67
2024/01/07 22:49:46;;;;;;;3.28;2.03;;;;;;;-18.20;88.44;102505.78;10423371;28;20049;-67
2024/01/07 22:54:49;;;;;;;3.47;1.35;;;;;;;-18.21;88.75;102490.97;10434652;28;20041;-67